sensor_id;sensor_type;location;lat;lon;timestamp;P1;durP1;ratioP1;P2;durP2;ratioP2
72319;SDS011;60269;52.502;16.732;2022-09-09T00:00:05;28.37;;;14.43;;
72319;SDS011;60269;52.502;16.732;2022-09-09T00:04:41;26.63;;;14.38;;
72319;SDS011;60269;52.502;16.732;2022-09-09T00:08:34;28.50;;;14.73;;
72319;SDS011;60269;52.502;16.732;2022-09-09T00:12:55;28.67;;;14.75;;
72319;SDS011;60269;52.502;16.732;2022-09-09T00:16:40;28.43;;;15.23;;
72319;SDS011;60269;52.502;16.732;2022-09-09T00:24:40;29.55;;;14.60;;
72319;SDS011;60269;52.502;16.732;2022-09-09T00:28:44;23.48;;;12.93;;
72319;SDS011;60269;52.502;16.732;2022-09-09T00:32:30;24.48;;;12.68;;
72319;SDS011;60269;52.502;16.732;2022-09-09T00:36:24;23.83;;;12.37;;
72319;SDS011;60269;52.502;16.732;2022-09-09T00:40:18;23.83;;;13.17;;
72319;SDS011;60269;52.502;16.732;2022-09-09T00:44:32;23.77;;;12.45;;
72319;SDS011;60269;52.502;16.732;2022-09-09T00:48:13;22.67;;;13.68;;
72319;SDS011;60269;52.502;16.732;2022-09-09T00:52:13;22.73;;;12.43;;
72319;SDS011;60269;52.502;16.732;2022-09-09T01:00:24;23.30;;;11.70;;
72319;SDS011;60269;52.502;16.732;2022-09-09T01:04:04;20.58;;;11.68;;
72319;SDS011;60269;52.502;16.732;2022-09-09T01:08:05;21.88;;;10.60;;
72319;SDS011;60269;52.502;16.732;2022-09-09T01:12:15;21.10;;;9.95;;
72319;SDS011;60269;52.502;16.732;2022-09-09T01:16:14;19.33;;;9.47;;
72319;SDS011;60269;52.502;16.732;2022-09-09T01:20:14;18.17;;;9.03;;
72319;SDS011;60269;52.502;16.732;2022-09-09T01:24:19;18.27;;;8.30;;
72319;SDS011;60269;52.502;16.732;2022-09-09T01:28:10;16.73;;;8.32;;
72319;SDS011;60269;52.502;16.732;2022-09-09T01:36:33;16.97;;;8.77;;
72319;SDS011;60269;52.502;16.732;2022-09-09T01:40:29;14.67;;;7.80;;
72319;SDS011;60269;52.502;16.732;2022-09-09T01:44:14;16.17;;;8.40;;
72319;SDS011;60269;52.502;16.732;2022-09-09T01:48:06;16.50;;;8.88;;
72319;SDS011;60269;52.502;16.732;2022-09-09T01:51:52;18.10;;;8.90;;
72319;SDS011;60269;52.502;16.732;2022-09-09T01:55:39;16.37;;;8.47;;
72319;SDS011;60269;52.502;16.732;2022-09-09T01:59:45;18.00;;;9.33;;
72319;SDS011;60269;52.502;16.732;2022-09-09T02:04:00;17.10;;;7.93;;
72319;SDS011;60269;52.502;16.732;2022-09-09T02:07:56;15.55;;;7.75;;
72319;SDS011;60269;52.502;16.732;2022-09-09T02:11:59;16.23;;;8.50;;
72319;SDS011;60269;52.502;16.732;2022-09-09T02:16:02;14.83;;;7.93;;
72319;SDS011;60269;52.502;16.732;2022-09-09T02:20:02;15.83;;;8.20;;
72319;SDS011;60269;52.502;16.732;2022-09-09T02:23:58;15.45;;;7.72;;
72319;SDS011;60269;52.502;16.732;2022-09-09T02:28:01;14.57;;;8.13;;
72319;SDS011;60269;52.502;16.732;2022-09-09T02:32:05;17.40;;;8.15;;
72319;SDS011;60269;52.502;16.732;2022-09-09T02:35:47;14.97;;;7.27;;
72319;SDS011;60269;52.502;16.732;2022-09-09T02:39:53;15.50;;;8.73;;
72319;SDS011;60269;52.502;16.732;2022-09-09T02:43:33;17.35;;;8.77;;
72319;SDS011;60269;52.502;16.732;2022-09-09T02:47:35;16.63;;;8.43;;
72319;SDS011;60269;52.502;16.732;2022-09-09T02:51:39;18.42;;;9.55;;
72319;SDS011;60269;52.502;16.732;2022-09-09T02:55:37;16.97;;;9.10;;
72319;SDS011;60269;52.502;16.732;2022-09-09T02:59:31;20.57;;;10.90;;
72319;SDS011;60269;52.502;16.732;2022-09-09T03:03:16;23.65;;;12.00;;
72319;SDS011;60269;52.502;16.732;2022-09-09T03:07:03;20.65;;;11.73;;
72319;SDS011;60269;52.502;16.732;2022-09-09T03:10:55;22.63;;;11.13;;
72319;SDS011;60269;52.502;16.732;2022-09-09T03:14:43;20.80;;;10.97;;
72319;SDS011;60269;52.502;16.732;2022-09-09T03:18:28;20.10;;;11.00;;
72319;SDS011;60269;52.502;16.732;2022-09-09T03:22:13;18.45;;;10.45;;
72319;SDS011;60269;52.502;16.732;2022-09-09T03:26:05;21.25;;;9.82;;
72319;SDS011;60269;52.502;16.732;2022-09-09T03:29:50;18.27;;;9.38;;
72319;SDS011;60269;52.502;16.732;2022-09-09T03:33:38;17.83;;;9.87;;
72319;SDS011;60269;52.502;16.732;2022-09-09T03:37:25;17.97;;;9.07;;
72319;SDS011;60269;52.502;16.732;2022-09-09T03:41:17;19.73;;;9.50;;
72319;SDS011;60269;52.502;16.732;2022-09-09T03:45:03;18.67;;;9.30;;
72319;SDS011;60269;52.502;16.732;2022-09-09T03:48:56;18.35;;;9.55;;
72319;SDS011;60269;52.502;16.732;2022-09-09T03:52:35;17.80;;;9.03;;
72319;SDS011;60269;52.502;16.732;2022-09-09T03:56:28;15.60;;;8.13;;
72319;SDS011;60269;52.502;16.732;2022-09-09T04:00:13;16.67;;;7.95;;
72319;SDS011;60269;52.502;16.732;2022-09-09T04:04:05;17.58;;;8.13;;
72319;SDS011;60269;52.502;16.732;2022-09-09T04:07:43;19.70;;;9.65;;
72319;SDS011;60269;52.502;16.732;2022-09-09T04:11:35;21.47;;;10.87;;
72319;SDS011;60269;52.502;16.732;2022-09-09T04:15:21;36.33;;;13.03;;
72319;SDS011;60269;52.502;16.732;2022-09-09T04:19:13;31.08;;;12.00;;
72319;SDS011;60269;52.502;16.732;2022-09-09T04:22:51;31.00;;;12.45;;
72319;SDS011;60269;52.502;16.732;2022-09-09T04:26:50;26.17;;;12.73;;
72319;SDS011;60269;52.502;16.732;2022-09-09T04:30:29;28.73;;;11.27;;
72319;SDS011;60269;52.502;16.732;2022-09-09T04:34:27;32.27;;;12.00;;
72319;SDS011;60269;52.502;16.732;2022-09-09T04:38:26;27.55;;;12.65;;
72319;SDS011;60269;52.502;16.732;2022-09-09T04:42:05;27.08;;;11.55;;
72319;SDS011;60269;52.502;16.732;2022-09-09T04:46:03;31.58;;;12.75;;
72319;SDS011;60269;52.502;16.732;2022-09-09T04:49:43;29.87;;;12.70;;
72319;SDS011;60269;52.502;16.732;2022-09-09T04:53:36;27.13;;;12.07;;
72319;SDS011;60269;52.502;16.732;2022-09-09T04:57:16;28.52;;;12.40;;
72319;SDS011;60269;52.502;16.732;2022-09-09T05:01:15;24.80;;;12.23;;
72319;SDS011;60269;52.502;16.732;2022-09-09T05:04:56;25.83;;;12.38;;
72319;SDS011;60269;52.502;16.732;2022-09-09T05:08:48;26.93;;;12.13;;
72319;SDS011;60269;52.502;16.732;2022-09-09T05:12:27;29.97;;;13.13;;
72319;SDS011;60269;52.502;16.732;2022-09-09T05:16:25;27.45;;;12.40;;
72319;SDS011;60269;52.502;16.732;2022-09-09T05:20:04;28.08;;;12.40;;
72319;SDS011;60269;52.502;16.732;2022-09-09T05:24:01;32.17;;;13.52;;
72319;SDS011;60269;52.502;16.732;2022-09-09T05:27:40;34.27;;;15.03;;
72319;SDS011;60269;52.502;16.732;2022-09-09T05:31:38;37.50;;;16.47;;
72319;SDS011;60269;52.502;16.732;2022-09-09T05:35:17;34.42;;;15.27;;
72319;SDS011;60269;52.502;16.732;2022-09-09T05:39:09;36.50;;;15.38;;
72319;SDS011;60269;52.502;16.732;2022-09-09T05:42:50;42.15;;;15.88;;
72319;SDS011;60269;52.502;16.732;2022-09-09T05:46:48;44.07;;;16.30;;
72319;SDS011;60269;52.502;16.732;2022-09-09T05:50:27;38.37;;;14.70;;
72319;SDS011;60269;52.502;16.732;2022-09-09T05:54:26;38.75;;;14.23;;
72319;SDS011;60269;52.502;16.732;2022-09-09T05:58:25;44.40;;;16.08;;
72319;SDS011;60269;52.502;16.732;2022-09-09T06:02:04;46.17;;;16.75;;
72319;SDS011;60269;52.502;16.732;2022-09-09T06:06:03;44.27;;;16.13;;
72319;SDS011;60269;52.502;16.732;2022-09-09T06:09:44;52.20;;;16.93;;
72319;SDS011;60269;52.502;16.732;2022-09-09T06:13:36;42.72;;;15.38;;
72319;SDS011;60269;52.502;16.732;2022-09-09T06:17:17;50.63;;;13.48;;
72319;SDS011;60269;52.502;16.732;2022-09-09T06:21:16;40.85;;;14.13;;
72319;SDS011;60269;52.502;16.732;2022-09-09T06:25:15;36.47;;;13.13;;
72319;SDS011;60269;52.502;16.732;2022-09-09T06:28:59;23.77;;;9.77;;
72319;SDS011;60269;52.502;16.732;2022-09-09T06:32:46;22.45;;;9.38;;
72319;SDS011;60269;52.502;16.732;2022-09-09T06:36:38;20.70;;;9.02;;
72319;SDS011;60269;52.502;16.732;2022-09-09T06:40:24;21.95;;;9.30;;
72319;SDS011;60269;52.502;16.732;2022-09-09T06:44:09;20.57;;;8.90;;
72319;SDS011;60269;52.502;16.732;2022-09-09T06:47:56;18.43;;;9.03;;
72319;SDS011;60269;52.502;16.732;2022-09-09T06:51:48;20.90;;;9.57;;
72319;SDS011;60269;52.502;16.732;2022-09-09T06:55:34;20.17;;;9.88;;
72319;SDS011;60269;52.502;16.732;2022-09-09T06:59:28;20.17;;;9.20;;
72319;SDS011;60269;52.502;16.732;2022-09-09T07:03:09;23.07;;;10.17;;
72319;SDS011;60269;52.502;16.732;2022-09-09T07:07:01;20.10;;;8.77;;
72319;SDS011;60269;52.502;16.732;2022-09-09T07:10:46;25.15;;;11.48;;
72319;SDS011;60269;52.502;16.732;2022-09-09T07:14:38;25.58;;;11.05;;
72319;SDS011;60269;52.502;16.732;2022-09-09T07:18:17;25.48;;;12.13;;
72319;SDS011;60269;52.502;16.732;2022-09-09T07:22:09;29.33;;;12.20;;
72319;SDS011;60269;52.502;16.732;2022-09-09T07:25:56;28.40;;;11.63;;
72319;SDS011;60269;52.502;16.732;2022-09-09T07:29:48;28.38;;;10.68;;
72319;SDS011;60269;52.502;16.732;2022-09-09T07:33:26;22.83;;;10.65;;
72319;SDS011;60269;52.502;16.732;2022-09-09T07:37:18;22.58;;;10.90;;
72319;SDS011;60269;52.502;16.732;2022-09-09T07:41:04;19.73;;;9.33;;
72319;SDS011;60269;52.502;16.732;2022-09-09T07:44:57;17.80;;;8.53;;
72319;SDS011;60269;52.502;16.732;2022-09-09T07:48:36;18.52;;;9.48;;
72319;SDS011;60269;52.502;16.732;2022-09-09T07:52:27;18.52;;;8.02;;
72319;SDS011;60269;52.502;16.732;2022-09-09T07:56:14;16.80;;;8.50;;
72319;SDS011;60269;52.502;16.732;2022-09-09T08:00:07;20.63;;;9.07;;
72319;SDS011;60269;52.502;16.732;2022-09-09T08:03:52;12.93;;;6.60;;
72319;SDS011;60269;52.502;16.732;2022-09-09T08:07:46;18.27;;;7.57;;
72319;SDS011;60269;52.502;16.732;2022-09-09T08:11:32;17.23;;;8.57;;
72319;SDS011;60269;52.502;16.732;2022-09-09T08:15:23;14.50;;;7.25;;
72319;SDS011;60269;52.502;16.732;2022-09-09T08:19:02;15.50;;;7.10;;
72319;SDS011;60269;52.502;16.732;2022-09-09T08:22:55;16.30;;;6.77;;
72319;SDS011;60269;52.502;16.732;2022-09-09T08:26:42;11.32;;;5.97;;
72319;SDS011;60269;52.502;16.732;2022-09-09T08:30:35;9.43;;;5.07;;
72319;SDS011;60269;52.502;16.732;2022-09-09T08:34:14;10.82;;;5.45;;
72319;SDS011;60269;52.502;16.732;2022-09-09T08:38:05;9.47;;;5.30;;
72319;SDS011;60269;52.502;16.732;2022-09-09T08:41:54;10.43;;;5.60;;
72319;SDS011;60269;52.502;16.732;2022-09-09T08:45:54;8.65;;;5.43;;
72319;SDS011;60269;52.502;16.732;2022-09-09T08:53:53;8.65;;;4.57;;
72319;SDS011;60269;52.502;16.732;2022-09-09T08:57:42;11.20;;;4.33;;
72319;SDS011;60269;52.502;16.732;2022-09-09T09:01:39;6.70;;;3.70;;
72319;SDS011;60269;52.502;16.732;2022-09-09T09:05:37;11.02;;;4.00;;
72319;SDS011;60269;52.502;16.732;2022-09-09T09:09:36;11.60;;;4.40;;
72319;SDS011;60269;52.502;16.732;2022-09-09T09:17:24;9.53;;;5.00;;
72319;SDS011;60269;52.502;16.732;2022-09-09T09:21:13;6.70;;;3.47;;
72319;SDS011;60269;52.502;16.732;2022-09-09T09:25:23;8.27;;;3.72;;
72319;SDS011;60269;52.502;16.732;2022-09-09T09:29:13;9.35;;;3.58;;
72319;SDS011;60269;52.502;16.732;2022-09-09T09:37:33;7.17;;;3.40;;
72319;SDS011;60269;52.502;16.732;2022-09-09T09:41:38;7.30;;;3.17;;
72319;SDS011;60269;52.502;16.732;2022-09-09T09:45:43;5.68;;;2.65;;
72319;SDS011;60269;52.502;16.732;2022-09-09T09:49:58;5.97;;;2.40;;
72319;SDS011;60269;52.502;16.732;2022-09-09T09:58:15;4.80;;;2.03;;
72319;SDS011;60269;52.502;16.732;2022-09-09T10:01:54;6.07;;;1.90;;
72319;SDS011;60269;52.502;16.732;2022-09-09T10:05:52;6.95;;;2.40;;
72319;SDS011;60269;52.502;16.732;2022-09-09T10:09:31;5.57;;;2.80;;
72319;SDS011;60269;52.502;16.732;2022-09-09T10:13:25;6.22;;;2.17;;
72319;SDS011;60269;52.502;16.732;2022-09-09T10:17:15;7.60;;;2.77;;
72319;SDS011;60269;52.502;16.732;2022-09-09T10:25:31;4.70;;;2.00;;
72319;SDS011;60269;52.502;16.732;2022-09-09T10:37:55;4.33;;;1.70;;
72319;SDS011;60269;52.502;16.732;2022-09-09T10:41:56;5.90;;;1.90;;
72319;SDS011;60269;52.502;16.732;2022-09-09T10:58:44;4.33;;;1.60;;
72319;SDS011;60269;52.502;16.732;2022-09-09T11:02:42;4.00;;;1.30;;
72319;SDS011;60269;52.502;16.732;2022-09-09T11:06:21;4.55;;;1.48;;
72319;SDS011;60269;52.502;16.732;2022-09-09T11:14:59;5.57;;;1.50;;
72319;SDS011;60269;52.502;16.732;2022-09-09T11:23:22;7.13;;;2.13;;
72319;SDS011;60269;52.502;16.732;2022-09-09T11:27:23;6.93;;;1.63;;
72319;SDS011;60269;52.502;16.732;2022-09-09T11:43:46;4.57;;;1.70;;
72319;SDS011;60269;52.502;16.732;2022-09-09T11:47:29;4.70;;;1.73;;
72319;SDS011;60269;52.502;16.732;2022-09-09T11:51:29;5.72;;;1.60;;
72319;SDS011;60269;52.502;16.732;2022-09-09T11:55:10;3.13;;;1.10;;
72319;SDS011;60269;52.502;16.732;2022-09-09T11:59:32;4.90;;;1.40;;
72319;SDS011;60269;52.502;16.732;2022-09-09T12:07:41;4.95;;;1.70;;
72319;SDS011;60269;52.502;16.732;2022-09-09T12:11:31;7.55;;;1.83;;
72319;SDS011;60269;52.502;16.732;2022-09-09T12:15:24;10.60;;;2.00;;
72319;SDS011;60269;52.502;16.732;2022-09-09T12:23:21;4.83;;;1.60;;
72319;SDS011;60269;52.502;16.732;2022-09-09T12:27:13;4.70;;;1.85;;
72319;SDS011;60269;52.502;16.732;2022-09-09T12:35:03;5.85;;;2.20;;
72319;SDS011;60269;52.502;16.732;2022-09-09T12:39:09;5.50;;;1.43;;
72319;SDS011;60269;52.502;16.732;2022-09-09T12:43:00;5.37;;;2.27;;
72319;SDS011;60269;52.502;16.732;2022-09-09T12:46:46;4.43;;;1.35;;
72319;SDS011;60269;52.502;16.732;2022-09-09T12:50:33;3.72;;;1.30;;
72319;SDS011;60269;52.502;16.732;2022-09-09T12:54:29;3.85;;;1.40;;
72319;SDS011;60269;52.502;16.732;2022-09-09T12:58:15;3.87;;;1.60;;
72319;SDS011;60269;52.502;16.732;2022-09-09T13:02:11;4.57;;;1.83;;
72319;SDS011;60269;52.502;16.732;2022-09-09T13:06:12;4.43;;;1.30;;
72319;SDS011;60269;52.502;16.732;2022-09-09T13:10:12;3.65;;;1.55;;
72319;SDS011;60269;52.502;16.732;2022-09-09T13:14:24;3.47;;;1.48;;
72319;SDS011;60269;52.502;16.732;2022-09-09T13:18:31;6.27;;;1.27;;
72319;SDS011;60269;52.502;16.732;2022-09-09T13:22:37;8.00;;;1.50;;
72319;SDS011;60269;52.502;16.732;2022-09-09T13:26:25;4.00;;;1.10;;
72319;SDS011;60269;52.502;16.732;2022-09-09T13:34:13;5.90;;;1.30;;
72319;SDS011;60269;52.502;16.732;2022-09-09T13:38:16;4.00;;;1.37;;
72319;SDS011;60269;52.502;16.732;2022-09-09T13:41:58;3.43;;;1.00;;
72319;SDS011;60269;52.502;16.732;2022-09-09T13:46:00;2.63;;;1.02;;
72319;SDS011;60269;52.502;16.732;2022-09-09T13:49:42;3.28;;;1.00;;
72319;SDS011;60269;52.502;16.732;2022-09-09T13:53:34;4.88;;;1.40;;
72319;SDS011;60269;52.502;16.732;2022-09-09T14:01:16;4.87;;;1.40;;
72319;SDS011;60269;52.502;16.732;2022-09-09T14:04:59;4.93;;;1.77;;
72319;SDS011;60269;52.502;16.732;2022-09-09T14:08:51;5.47;;;1.80;;
72319;SDS011;60269;52.502;16.732;2022-09-09T14:12:30;3.90;;;1.52;;
72319;SDS011;60269;52.502;16.732;2022-09-09T14:16:28;3.77;;;1.70;;
72319;SDS011;60269;52.502;16.732;2022-09-09T14:20:07;7.90;;;2.27;;
72319;SDS011;60269;52.502;16.732;2022-09-09T14:23:59;4.35;;;1.88;;
72319;SDS011;60269;52.502;16.732;2022-09-09T14:27:38;3.88;;;1.35;;
72319;SDS011;60269;52.502;16.732;2022-09-09T14:31:37;6.63;;;1.45;;
72319;SDS011;60269;52.502;16.732;2022-09-09T14:35:16;5.83;;;1.67;;
72319;SDS011;60269;52.502;16.732;2022-09-09T14:39:08;4.73;;;1.43;;
72319;SDS011;60269;52.502;16.732;2022-09-09T14:42:47;6.07;;;1.67;;
72319;SDS011;60269;52.502;16.732;2022-09-09T14:46:53;5.65;;;1.90;;
72319;SDS011;60269;52.502;16.732;2022-09-09T14:50:52;6.82;;;2.40;;
72319;SDS011;60269;52.502;16.732;2022-09-09T14:54:31;4.37;;;1.90;;
72319;SDS011;60269;52.502;16.732;2022-09-09T14:58:23;4.97;;;1.60;;
72319;SDS011;60269;52.502;16.732;2022-09-09T15:02:03;4.28;;;1.48;;
72319;SDS011;60269;52.502;16.732;2022-09-09T15:06:05;5.60;;;1.60;;
72319;SDS011;60269;52.502;16.732;2022-09-09T15:09:47;6.22;;;1.48;;
72319;SDS011;60269;52.502;16.732;2022-09-09T15:13:39;4.97;;;1.70;;
72319;SDS011;60269;52.502;16.732;2022-09-09T15:17:25;4.97;;;2.10;;
72319;SDS011;60269;52.502;16.732;2022-09-09T15:21:17;4.90;;;1.50;;
72319;SDS011;60269;52.502;16.732;2022-09-09T15:25:05;6.60;;;1.40;;
72319;SDS011;60269;52.502;16.732;2022-09-09T15:28:49;5.90;;;1.38;;
72319;SDS011;60269;52.502;16.732;2022-09-09T15:32:35;10.13;;;2.03;;
72319;SDS011;60269;52.502;16.732;2022-09-09T15:40:15;6.82;;;2.08;;
72319;SDS011;60269;52.502;16.732;2022-09-09T15:43:59;8.30;;;1.67;;
72319;SDS011;60269;52.502;16.732;2022-09-09T15:47:46;5.05;;;1.13;;
72319;SDS011;60269;52.502;16.732;2022-09-09T15:51:40;7.67;;;1.07;;
72319;SDS011;60269;52.502;16.732;2022-09-09T15:55:27;5.50;;;0.87;;
72319;SDS011;60269;52.502;16.732;2022-09-09T15:59:12;6.95;;;1.02;;
72319;SDS011;60269;52.502;16.732;2022-09-09T16:02:59;5.65;;;1.00;;
72319;SDS011;60269;52.502;16.732;2022-09-09T16:07:01;3.67;;;1.00;;
72319;SDS011;60269;52.502;16.732;2022-09-09T16:10:41;6.20;;;1.20;;
72319;SDS011;60269;52.502;16.732;2022-09-09T16:14:32;6.10;;;1.27;;
72319;SDS011;60269;52.502;16.732;2022-09-09T16:18:13;5.18;;;1.27;;
72319;SDS011;60269;52.502;16.732;2022-09-09T16:22:11;7.13;;;1.40;;
72319;SDS011;60269;52.502;16.732;2022-09-09T16:25:56;9.38;;;1.30;;
72319;SDS011;60269;52.502;16.732;2022-09-09T16:29:49;4.67;;;1.07;;
72319;SDS011;60269;52.502;16.732;2022-09-09T16:33:28;7.00;;;1.60;;
72319;SDS011;60269;52.502;16.732;2022-09-09T16:37:26;4.55;;;1.15;;
72319;SDS011;60269;52.502;16.732;2022-09-09T16:41:05;8.18;;;1.30;;
72319;SDS011;60269;52.502;16.732;2022-09-09T16:44:57;5.35;;;1.25;;
72319;SDS011;60269;52.502;16.732;2022-09-09T16:48:36;8.23;;;1.77;;
72319;SDS011;60269;52.502;16.732;2022-09-09T16:52:36;9.60;;;1.43;;
72319;SDS011;60269;52.502;16.732;2022-09-09T16:56:16;9.50;;;1.83;;
72319;SDS011;60269;52.502;16.732;2022-09-09T17:00:11;4.00;;;0.95;;
72319;SDS011;60269;52.502;16.732;2022-09-09T17:03:53;6.20;;;1.52;;
72319;SDS011;60269;52.502;16.732;2022-09-09T17:07:53;8.27;;;1.60;;
72319;SDS011;60269;52.502;16.732;2022-09-09T17:11:33;5.67;;;1.63;;
72319;SDS011;60269;52.502;16.732;2022-09-09T17:15:25;5.03;;;1.50;;
72319;SDS011;60269;52.502;16.732;2022-09-09T17:19:04;7.72;;;1.52;;
72319;SDS011;60269;52.502;16.732;2022-09-09T17:23:03;8.18;;;1.77;;
72319;SDS011;60269;52.502;16.732;2022-09-09T17:26:42;5.80;;;1.97;;
72319;SDS011;60269;52.502;16.732;2022-09-09T17:30:33;12.40;;;2.23;;
72319;SDS011;60269;52.502;16.732;2022-09-09T17:34:12;7.50;;;2.58;;
72319;SDS011;60269;52.502;16.732;2022-09-09T17:38:10;7.22;;;1.98;;
72319;SDS011;60269;52.502;16.732;2022-09-09T17:41:49;9.43;;;1.52;;
72319;SDS011;60269;52.502;16.732;2022-09-09T17:45:40;6.70;;;1.77;;
72319;SDS011;60269;52.502;16.732;2022-09-09T17:49:19;8.57;;;1.10;;
72319;SDS011;60269;52.502;16.732;2022-09-09T17:53:17;5.95;;;1.15;;
72319;SDS011;60269;52.502;16.732;2022-09-09T17:56:56;7.78;;;2.50;;
72319;SDS011;60269;52.502;16.732;2022-09-09T18:00:47;6.07;;;1.13;;
72319;SDS011;60269;52.502;16.732;2022-09-09T18:04:26;10.37;;;2.90;;
72319;SDS011;60269;52.502;16.732;2022-09-09T18:08:24;6.67;;;1.23;;
72319;SDS011;60269;52.502;16.732;2022-09-09T18:12:07;8.40;;;1.55;;
72319;SDS011;60269;52.502;16.732;2022-09-09T18:15:59;5.88;;;1.25;;
72319;SDS011;60269;52.502;16.732;2022-09-09T18:19:38;4.82;;;1.30;;
72319;SDS011;60269;52.502;16.732;2022-09-09T18:23:37;16.93;;;8.07;;
72319;SDS011;60269;52.502;16.732;2022-09-09T18:27:18;7.17;;;2.73;;
72319;SDS011;60269;52.502;16.732;2022-09-09T18:31:11;5.45;;;1.60;;
72319;SDS011;60269;52.502;16.732;2022-09-09T18:34:51;8.52;;;1.65;;
72319;SDS011;60269;52.502;16.732;2022-09-09T18:38:50;8.70;;;1.98;;
72319;SDS011;60269;52.502;16.732;2022-09-09T18:42:29;5.77;;;1.80;;
72319;SDS011;60269;52.502;16.732;2022-09-09T18:46:21;8.90;;;3.13;;
72319;SDS011;60269;52.502;16.732;2022-09-09T18:50:00;6.72;;;2.15;;
72319;SDS011;60269;52.502;16.732;2022-09-09T18:54:00;7.30;;;1.98;;
72319;SDS011;60269;52.502;16.732;2022-09-09T18:57:47;7.35;;;2.13;;
72319;SDS011;60269;52.502;16.732;2022-09-09T19:01:39;8.50;;;2.37;;
72319;SDS011;60269;52.502;16.732;2022-09-09T19:05:18;6.87;;;2.50;;
72319;SDS011;60269;52.502;16.732;2022-09-09T19:09:11;10.00;;;2.67;;
72319;SDS011;60269;52.502;16.732;2022-09-09T19:12:58;7.15;;;2.50;;
72319;SDS011;60269;52.502;16.732;2022-09-09T19:16:50;9.00;;;2.85;;
72319;SDS011;60269;52.502;16.732;2022-09-09T19:20:28;7.63;;;2.80;;
72319;SDS011;60269;52.502;16.732;2022-09-09T19:24:21;7.27;;;2.97;;
72319;SDS011;60269;52.502;16.732;2022-09-09T19:28:07;9.55;;;3.47;;
72319;SDS011;60269;52.502;16.732;2022-09-09T19:31:59;10.43;;;2.80;;
72319;SDS011;60269;52.502;16.732;2022-09-09T19:35:59;9.65;;;3.58;;
72319;SDS011;60269;52.502;16.732;2022-09-09T19:39:52;9.23;;;4.33;;
72319;SDS011;60269;52.502;16.732;2022-09-09T19:43:38;19.73;;;7.03;;
72319;SDS011;60269;52.502;16.732;2022-09-09T19:47:31;17.20;;;4.75;;
72319;SDS011;60269;52.502;16.732;2022-09-09T19:51:10;9.95;;;4.28;;
72319;SDS011;60269;52.502;16.732;2022-09-09T19:55:04;8.25;;;3.63;;
72319;SDS011;60269;52.502;16.732;2022-09-09T19:58:49;12.73;;;4.03;;
72319;SDS011;60269;52.502;16.732;2022-09-09T20:02:42;12.37;;;3.83;;
72319;SDS011;60269;52.502;16.732;2022-09-09T20:06:41;10.15;;;3.75;;
72319;SDS011;60269;52.502;16.732;2022-09-09T20:10:21;9.18;;;3.10;;
72319;SDS011;60269;52.502;16.732;2022-09-09T20:14:13;9.15;;;3.97;;
72319;SDS011;60269;52.502;16.732;2022-09-09T20:17:59;9.37;;;3.97;;
72319;SDS011;60269;52.502;16.732;2022-09-09T20:21:44;7.93;;;3.73;;
72319;SDS011;60269;52.502;16.732;2022-09-09T20:25:36;7.88;;;3.67;;
72319;SDS011;60269;52.502;16.732;2022-09-09T20:29:29;7.80;;;3.10;;
72319;SDS011;60269;52.502;16.732;2022-09-09T20:33:14;11.18;;;3.30;;
72319;SDS011;60269;52.502;16.732;2022-09-09T20:36:59;9.47;;;4.20;;
72319;SDS011;60269;52.502;16.732;2022-09-09T20:40:46;24.07;;;13.37;;
72319;SDS011;60269;52.502;16.732;2022-09-09T20:44:38;15.85;;;7.85;;
72319;SDS011;60269;52.502;16.732;2022-09-09T20:48:23;12.20;;;4.93;;
72319;SDS011;60269;52.502;16.732;2022-09-09T20:52:09;10.40;;;4.05;;
72319;SDS011;60269;52.502;16.732;2022-09-09T20:55:57;9.60;;;3.90;;
72319;SDS011;60269;52.502;16.732;2022-09-09T20:59:50;9.80;;;4.10;;
72319;SDS011;60269;52.502;16.732;2022-09-09T21:03:35;11.02;;;4.03;;
72319;SDS011;60269;52.502;16.732;2022-09-09T21:07:20;8.07;;;4.20;;
72319;SDS011;60269;52.502;16.732;2022-09-09T21:11:05;12.23;;;5.18;;
72319;SDS011;60269;52.502;16.732;2022-09-09T21:14:57;12.07;;;5.17;;
72319;SDS011;60269;52.502;16.732;2022-09-09T21:18:42;10.30;;;4.90;;
72319;SDS011;60269;52.502;16.732;2022-09-09T21:22:27;10.75;;;4.55;;
72319;SDS011;60269;52.502;16.732;2022-09-09T21:26:13;11.38;;;5.10;;
72319;SDS011;60269;52.502;16.732;2022-09-09T21:30:06;15.82;;;5.22;;
72319;SDS011;60269;52.502;16.732;2022-09-09T21:33:51;9.17;;;4.40;;
72319;SDS011;60269;52.502;16.732;2022-09-09T21:37:36;12.53;;;4.93;;
72319;SDS011;60269;52.502;16.732;2022-09-09T21:41:21;11.27;;;4.72;;
72319;SDS011;60269;52.502;16.732;2022-09-09T21:45:13;11.82;;;4.90;;
72319;SDS011;60269;52.502;16.732;2022-09-09T21:48:58;12.90;;;4.55;;
72319;SDS011;60269;52.502;16.732;2022-09-09T21:52:43;10.23;;;4.60;;
72319;SDS011;60269;52.502;16.732;2022-09-09T21:56:28;11.70;;;4.87;;
72319;SDS011;60269;52.502;16.732;2022-09-09T22:00:20;13.05;;;5.45;;
72319;SDS011;60269;52.502;16.732;2022-09-09T22:04:05;11.88;;;5.15;;
72319;SDS011;60269;52.502;16.732;2022-09-09T22:07:50;12.57;;;5.63;;
72319;SDS011;60269;52.502;16.732;2022-09-09T22:11:37;13.17;;;5.73;;
72319;SDS011;60269;52.502;16.732;2022-09-09T22:15:29;13.03;;;4.50;;
72319;SDS011;60269;52.502;16.732;2022-09-09T22:19:16;13.88;;;6.13;;
72319;SDS011;60269;52.502;16.732;2022-09-09T22:23:01;12.93;;;6.05;;
72319;SDS011;60269;52.502;16.732;2022-09-09T22:26:46;12.80;;;5.72;;
72319;SDS011;60269;52.502;16.732;2022-09-09T22:30:39;11.50;;;4.00;;
72319;SDS011;60269;52.502;16.732;2022-09-09T22:34:24;11.00;;;4.53;;
72319;SDS011;60269;52.502;16.732;2022-09-09T22:38:09;10.90;;;3.80;;
72319;SDS011;60269;52.502;16.732;2022-09-09T22:41:55;9.43;;;4.07;;
72319;SDS011;60269;52.502;16.732;2022-09-09T22:45:48;9.02;;;4.28;;
72319;SDS011;60269;52.502;16.732;2022-09-09T22:49:35;12.17;;;3.80;;
72319;SDS011;60269;52.502;16.732;2022-09-09T22:53:27;11.67;;;4.17;;
72319;SDS011;60269;52.502;16.732;2022-09-09T22:57:05;9.45;;;4.22;;
72319;SDS011;60269;52.502;16.732;2022-09-09T23:00:57;9.00;;;3.95;;
72319;SDS011;60269;52.502;16.732;2022-09-09T23:04:43;12.15;;;4.50;;
72319;SDS011;60269;52.502;16.732;2022-09-09T23:08:36;11.17;;;3.97;;
72319;SDS011;60269;52.502;16.732;2022-09-09T23:12:15;8.67;;;3.30;;
72319;SDS011;60269;52.502;16.732;2022-09-09T23:16:09;11.65;;;5.28;;
72319;SDS011;60269;52.502;16.732;2022-09-09T23:19:55;11.07;;;5.50;;
72319;SDS011;60269;52.502;16.732;2022-09-09T23:23:47;10.15;;;4.95;;
72319;SDS011;60269;52.502;16.732;2022-09-09T23:27:29;13.90;;;6.23;;
72319;SDS011;60269;52.502;16.732;2022-09-09T23:31:23;10.80;;;5.37;;
72319;SDS011;60269;52.502;16.732;2022-09-09T23:35:09;12.50;;;5.25;;
72319;SDS011;60269;52.502;16.732;2022-09-09T23:39:02;13.45;;;5.20;;
72319;SDS011;60269;52.502;16.732;2022-09-09T23:42:42;14.50;;;5.55;;
72319;SDS011;60269;52.502;16.732;2022-09-09T23:46:34;11.90;;;5.70;;
72319;SDS011;60269;52.502;16.732;2022-09-09T23:50:19;15.17;;;5.80;;
72319;SDS011;60269;52.502;16.732;2022-09-09T23:54:11;11.60;;;5.80;;
72319;SDS011;60269;52.502;16.732;2022-09-09T23:57:49;10.90;;;5.43;;
